createdAt,value
2023-01-17T00:01:14.509Z,21.00
2023-01-17T00:04:03.462Z,21.10
2023-01-17T00:06:50.949Z,21.00
2023-01-17T00:09:41.215Z,21.10
2023-01-17T00:12:10.328Z,21.10
2023-01-17T00:14:40.058Z,21.10
2023-01-17T00:17:09.530Z,21.10
2023-01-17T00:19:56.966Z,21.10
2023-01-17T00:22:47.590Z,21.10
2023-01-17T00:25:37.106Z,21.10
2023-01-17T00:28:06.237Z,21.10
2023-01-17T00:30:35.039Z,21.10
2023-01-17T00:33:03.942Z,21.10
2023-01-17T00:35:33.493Z,21.10
2023-01-17T00:38:23.417Z,21.10
2023-01-17T00:40:52.637Z,21.10
2023-01-17T00:43:41.262Z,21.10
2023-01-17T00:46:28.664Z,21.10
2023-01-17T00:49:16.487Z,21.20
2023-01-17T00:52:04.044Z,21.10
2023-01-17T00:54:52.023Z,21.20
2023-01-17T00:57:39.543Z,21.20
2023-01-17T01:00:27.546Z,21.20
2023-01-17T01:03:15.380Z,21.10
2023-01-17T01:06:03.971Z,21.10
2023-01-17T01:08:51.874Z,21.20
2023-01-17T01:11:40.385Z,21.20
2023-01-17T01:14:29.586Z,21.20
2023-01-17T01:17:17.965Z,21.20
2023-01-17T01:20:05.424Z,21.20
2023-01-17T01:22:53.327Z,21.20
2023-01-17T01:25:41.358Z,21.20
2023-01-17T01:28:33.260Z,21.20
2023-01-17T01:31:21.928Z,21.20
2023-01-17T01:33:53.256Z,21.30
2023-01-17T01:36:23.195Z,21.30
2023-01-17T01:38:52.651Z,21.30
2023-01-17T01:41:21.950Z,21.40
2023-01-17T01:43:55.552Z,21.40
2023-01-17T01:46:40.088Z,21.30
2023-01-17T01:49:25.364Z,21.50
2023-01-17T01:52:02.337Z,21.50
2023-01-17T01:54:55.346Z,21.40
2023-01-17T01:57:27.911Z,21.50
2023-01-17T02:00:02.385Z,21.40
2023-01-17T02:02:41.112Z,21.50
2023-01-17T02:05:11.135Z,21.40
2023-01-17T02:07:44.940Z,21.50
2023-01-17T02:10:13.922Z,21.50
2023-01-17T02:12:43.061Z,21.50
2023-01-17T02:15:12.717Z,21.50
2023-01-17T02:18:04.130Z,21.50
2023-01-17T02:20:46.928Z,21.50
2023-01-17T02:23:39.006Z,21.50
2023-01-17T02:26:32.255Z,21.50
2023-01-17T02:29:29.845Z,21.50
2023-01-17T02:32:23.738Z,21.50
2023-01-17T02:35:19.121Z,21.60
2023-01-17T02:37:52.733Z,21.70
2023-01-17T02:40:28.640Z,21.90
2023-01-17T02:43:01.400Z,22.00
2023-01-17T02:45:32.568Z,22.20
2023-01-17T02:48:02.076Z,22.30
2023-01-17T02:50:57.226Z,22.30
2023-01-17T02:53:33.713Z,22.40
2023-01-17T02:56:12.177Z,22.50
2023-01-17T02:59:12.842Z,22.50
2023-01-17T03:01:43.369Z,22.50
2023-01-17T03:04:21.946Z,22.50
2023-01-17T03:06:57.865Z,22.50
2023-01-17T03:09:27.451Z,22.50
2023-01-17T03:11:57.127Z,22.50
2023-01-17T03:14:26.617Z,22.50
2023-01-17T03:16:56.394Z,22.50
2023-01-17T03:19:26.719Z,22.50
2023-01-17T03:21:56.475Z,22.50
2023-01-17T03:24:25.481Z,22.50
2023-01-17T03:26:55.331Z,22.50
2023-01-17T03:29:24.588Z,22.50
2023-01-17T03:31:53.605Z,22.50
2023-01-17T03:34:23.655Z,22.50
2023-01-17T03:36:53.425Z,22.50
2023-01-17T03:39:23.451Z,22.50
2023-01-17T03:41:52.873Z,22.40
2023-01-17T03:44:22.192Z,22.40
2023-01-17T03:46:51.813Z,22.50
2023-01-17T03:49:21.448Z,22.40
2023-01-17T03:51:50.756Z,22.50
2023-01-17T03:54:20.036Z,22.50
2023-01-17T03:56:50.032Z,22.50
2023-01-17T03:59:19.158Z,22.50
2023-01-17T04:01:48.257Z,22.60
2023-01-17T04:04:17.721Z,22.60
2023-01-17T04:06:48.738Z,22.70
2023-01-17T04:09:19.538Z,22.70
2023-01-17T04:13:04.328Z,22.70
2023-01-17T04:15:34.497Z,22.80
2023-01-17T04:18:05.579Z,22.70
2023-01-17T04:20:39.222Z,22.80
2023-01-17T04:23:09.206Z,22.90
2023-01-17T04:25:38.924Z,22.90
2023-01-17T04:28:08.890Z,22.90
2023-01-17T04:30:38.459Z,23.00
2023-01-17T04:33:10.646Z,23.00
2023-01-17T04:35:40.327Z,23.00
2023-01-17T04:38:09.753Z,23.00
2023-01-17T04:40:54.244Z,23.00
2023-01-17T04:43:23.955Z,23.00
2023-01-17T04:45:59.294Z,23.00
2023-01-17T04:48:29.394Z,23.00
2023-01-17T04:51:02.407Z,22.80
2023-01-17T04:53:31.634Z,22.70
2023-01-17T04:56:01.288Z,22.80
2023-01-17T04:58:30.996Z,22.80
2023-01-17T05:01:05.046Z,22.80
2023-01-17T05:03:34.449Z,22.80
2023-01-17T05:06:04.025Z,22.90
2023-01-17T05:08:33.454Z,22.90
2023-01-17T05:11:02.545Z,22.80
2023-01-17T05:13:31.927Z,22.90
2023-01-17T05:16:01.101Z,22.90
2023-01-17T05:18:30.020Z,22.80
2023-01-17T05:21:20.381Z,22.90
2023-01-17T05:23:50.171Z,22.80
2023-01-17T05:26:19.685Z,22.90
2023-01-17T05:28:49.133Z,22.90
2023-01-17T05:31:19.287Z,22.90
2023-01-17T05:33:48.635Z,22.90
2023-01-17T05:36:19.229Z,23.00
2023-01-17T05:38:50.850Z,22.90
2023-01-17T05:41:20.881Z,22.90
2023-01-17T05:43:51.401Z,23.00
2023-01-17T05:46:21.436Z,22.90
2023-01-17T05:48:50.757Z,22.90
2023-01-17T05:51:19.568Z,22.90
2023-01-17T05:53:49.392Z,22.90
2023-01-17T05:56:19.842Z,22.80
2023-01-17T05:58:50.960Z,22.90
2023-01-17T06:01:20.167Z,22.80
2023-01-17T06:03:49.806Z,22.90
2023-01-17T06:06:47.137Z,22.80
2023-01-17T06:09:16.784Z,22.90
2023-01-17T06:11:46.514Z,22.90
2023-01-17T06:14:15.917Z,22.90
2023-01-17T06:16:46.088Z,22.80
2023-01-17T06:19:16.497Z,22.80
2023-01-17T06:21:45.799Z,22.80
2023-01-17T06:24:16.412Z,22.80
2023-01-17T06:26:45.518Z,22.80
2023-01-17T06:29:15.569Z,22.80
2023-01-17T06:31:45.044Z,22.80
2023-01-17T06:34:14.297Z,22.90
2023-01-17T06:36:43.348Z,22.80
2023-01-17T06:39:14.935Z,22.80
2023-01-17T06:41:44.880Z,22.80
2023-01-17T06:44:13.913Z,22.80
2023-01-17T06:46:43.036Z,22.80
2023-01-17T06:49:11.879Z,22.80
2023-01-17T06:51:43.641Z,22.70
2023-01-17T06:54:34.535Z,22.70
2023-01-17T06:57:04.559Z,22.70
2023-01-17T06:59:34.007Z,22.70
2023-01-17T07:02:03.052Z,22.70
2023-01-17T07:04:32.109Z,22.60
2023-01-17T07:07:02.625Z,22.70
2023-01-17T07:09:31.727Z,22.70
2023-01-17T07:12:03.085Z,22.70
2023-01-17T07:14:32.524Z,22.70
2023-01-17T07:17:03.990Z,22.70
2023-01-17T07:19:33.986Z,22.60
2023-01-17T07:22:04.388Z,22.60
2023-01-17T07:24:37.481Z,22.60
2023-01-17T07:27:10.779Z,22.60
2023-01-17T07:29:40.784Z,22.70
2023-01-17T07:32:12.010Z,22.70
2023-01-17T07:34:41.808Z,22.60
2023-01-17T07:37:13.078Z,22.60
2023-01-17T07:39:44.245Z,22.60
2023-01-17T07:42:13.827Z,22.60
2023-01-17T07:44:45.075Z,22.70
2023-01-17T07:47:14.975Z,22.70
2023-01-17T07:49:45.172Z,22.60
2023-01-17T07:52:15.089Z,22.60
2023-01-17T07:54:46.495Z,22.60
2023-01-17T07:57:15.373Z,22.60
2023-01-17T07:59:44.717Z,22.60
2023-01-17T08:02:21.745Z,22.60
2023-01-17T08:04:51.267Z,22.60
2023-01-17T08:07:20.533Z,22.60
2023-01-17T08:09:50.955Z,22.50
2023-01-17T08:12:20.733Z,22.50
2023-01-17T08:14:50.438Z,22.60
2023-01-17T08:17:21.128Z,22.50
2023-01-17T08:19:52.404Z,22.50
2023-01-17T08:22:22.436Z,22.50
2023-01-17T08:24:52.427Z,22.50
2023-01-17T08:27:21.424Z,22.50
2023-01-17T08:29:50.857Z,22.50
2023-01-17T08:32:22.413Z,22.50
2023-01-17T08:34:52.166Z,22.50
2023-01-17T08:37:21.044Z,22.50
2023-01-17T08:39:50.800Z,22.50
2023-01-17T08:42:20.051Z,22.50
2023-01-17T08:44:50.998Z,22.50
2023-01-17T08:47:20.102Z,22.50
2023-01-17T08:49:51.164Z,22.50
2023-01-17T08:52:20.952Z,22.50
2023-01-17T08:54:51.261Z,22.50
2023-01-17T08:57:24.478Z,22.50
2023-01-17T08:59:54.410Z,22.50
2023-01-17T09:02:24.991Z,22.50
2023-01-17T09:04:55.033Z,22.40
2023-01-17T09:07:25.506Z,22.40
2023-01-17T09:09:54.656Z,22.40
2023-01-17T09:12:24.482Z,22.50
2023-01-17T09:14:53.913Z,22.50
2023-01-17T09:17:23.605Z,22.50
2023-01-17T09:19:53.483Z,22.50
2023-01-17T09:22:33.033Z,22.50
2023-01-17T09:25:02.668Z,22.50
2023-01-17T09:27:31.972Z,22.50
2023-01-17T09:30:01.653Z,22.50
2023-01-17T09:32:31.137Z,22.50
2023-01-17T09:35:02.021Z,22.50
2023-01-17T09:37:31.637Z,22.50
2023-01-17T09:40:01.087Z,22.50
2023-01-17T09:42:35.758Z,22.50
2023-01-17T09:45:06.374Z,22.40
2023-01-17T09:47:47.321Z,22.50
2023-01-17T09:50:34.520Z,22.50
2023-01-17T09:53:05.329Z,22.50
2023-01-17T09:55:58.310Z,22.50
2023-01-17T09:58:34.349Z,22.40
2023-01-17T10:01:18.513Z,22.40
2023-01-17T10:03:57.326Z,22.40
2023-01-17T10:07:03.419Z,22.40
2023-01-17T10:09:41.579Z,22.40
2023-01-17T10:12:47.499Z,22.40
2023-01-17T10:15:33.718Z,22.40
2023-01-17T10:18:43.671Z,22.40
2023-01-17T10:21:18.195Z,22.40
2023-01-17T10:23:47.723Z,22.40
2023-01-17T10:26:23.403Z,22.40
2023-01-17T10:28:54.521Z,22.40
2023-01-17T10:31:35.109Z,22.30
2023-01-17T10:34:39.142Z,22.30
2023-01-17T10:37:16.238Z,22.30
2023-01-17T10:39:47.844Z,22.20
2023-01-17T10:42:51.841Z,22.20
2023-01-17T10:45:27.389Z,22.20
2023-01-17T10:48:17.524Z,22.30
2023-01-17T10:51:25.355Z,22.20
2023-01-17T10:54:07.584Z,22.20
2023-01-17T10:56:37.157Z,22.10
2023-01-17T10:59:31.198Z,22.20
2023-01-17T11:02:00.827Z,22.20
2023-01-17T11:04:39.998Z,22.20
2023-01-17T11:07:19.063Z,22.20
2023-01-17T11:09:54.289Z,22.10
2023-01-17T11:12:33.938Z,22.10
2023-01-17T11:15:12.320Z,22.20
2023-01-17T11:18:17.323Z,22.10
2023-01-17T11:20:46.753Z,22.10
2023-01-17T11:23:23.750Z,22.10
2023-01-17T11:25:58.630Z,22.10
2023-01-17T11:28:36.325Z,22.10
2023-01-17T11:31:17.670Z,22.10
2023-01-17T11:33:56.340Z,22.20
2023-01-17T11:36:31.114Z,22.20
2023-01-17T11:39:08.724Z,22.20
2023-01-17T11:41:39.988Z,22.20
2023-01-17T11:44:30.389Z,22.20
2023-01-17T11:47:15.525Z,22.20
2023-01-17T11:49:46.642Z,22.10
2023-01-17T11:52:25.694Z,22.00
2023-01-17T11:54:55.888Z,22.00
2023-01-17T11:57:30.889Z,22.00
2023-01-17T12:00:17.222Z,22.00
2023-01-17T12:03:16.196Z,22.00
2023-01-17T12:06:14.526Z,22.00
2023-01-17T12:08:58.739Z,22.10
2023-01-17T12:12:06.337Z,22.10
2023-01-17T12:14:46.728Z,22.10
2023-01-17T12:17:48.814Z,22.00
2023-01-17T12:20:47.167Z,22.00
2023-01-17T12:23:59.007Z,22.00
2023-01-17T12:26:31.839Z,22.00
2023-01-17T12:29:04.344Z,22.00
2023-01-17T12:31:58.888Z,22.00
2023-01-17T12:34:28.573Z,22.00
2023-01-17T12:37:16.544Z,22.00
2023-01-17T12:39:59.353Z,22.00
2023-01-17T12:42:37.429Z,22.00
2023-01-17T12:45:15.339Z,22.10
2023-01-17T12:47:49.847Z,22.10
2023-01-17T12:50:36.442Z,22.00
2023-01-17T12:53:19.227Z,22.00
2023-01-17T12:56:12.547Z,22.10
2023-01-17T12:58:46.186Z,22.10
2023-01-17T13:01:41.466Z,22.00
2023-01-17T13:04:31.746Z,22.00
2023-01-17T13:07:38.621Z,22.00
2023-01-17T13:10:17.521Z,22.00
2023-01-17T13:12:53.615Z,22.00
2023-01-17T13:15:34.795Z,22.10
2023-01-17T13:18:23.737Z,22.10
2023-01-17T13:21:28.061Z,22.00
2023-01-17T13:24:00.615Z,22.00
2023-01-17T13:26:50.255Z,22.00
2023-01-17T13:29:35.884Z,22.00
2023-01-17T13:32:31.752Z,22.00
2023-01-17T13:35:05.372Z,22.00
2023-01-17T13:37:58.832Z,22.00
2023-01-17T13:40:48.029Z,22.00
2023-01-17T13:43:37.123Z,22.00
2023-01-17T13:46:12.637Z,22.00
2023-01-17T13:48:48.867Z,22.00
2023-01-17T13:51:20.901Z,22.00
2023-01-17T13:53:55.739Z,22.00
2023-01-17T13:56:34.355Z,22.00
2023-01-17T13:59:16.342Z,22.00
2023-01-17T14:01:52.797Z,22.00
2023-01-17T14:04:27.833Z,22.00
2023-01-17T14:06:59.041Z,22.00
2023-01-17T14:09:38.705Z,22.00
2023-01-17T14:12:17.571Z,22.00
2023-01-17T14:14:57.115Z,22.00
2023-01-17T14:17:52.789Z,22.00
2023-01-17T14:20:31.013Z,22.00
2023-01-17T14:23:14.015Z,22.00
2023-01-17T14:25:53.557Z,21.90
2023-01-17T14:28:28.939Z,22.00
2023-01-17T14:30:59.142Z,22.00
2023-01-17T14:33:36.888Z,22.00
2023-01-17T14:36:11.131Z,22.00
2023-01-17T14:38:46.036Z,22.00
2023-01-17T14:41:27.690Z,22.00
2023-01-17T14:44:01.656Z,22.00
2023-01-17T14:46:38.349Z,22.00
2023-01-17T14:49:21.481Z,22.00
2023-01-17T14:52:09.449Z,22.00
2023-01-17T14:54:41.063Z,21.90
2023-01-17T14:57:40.875Z,22.00
2023-01-17T15:00:29.929Z,21.90
2023-01-17T15:03:03.400Z,22.00
2023-01-17T15:05:37.323Z,22.00
2023-01-17T15:08:17.271Z,22.00
2023-01-17T15:11:04.195Z,22.00
2023-01-17T15:13:44.610Z,22.00
2023-01-17T15:16:34.973Z,21.90
2023-01-17T15:19:16.221Z,22.00
2023-01-17T15:21:52.535Z,22.00
2023-01-17T15:24:29.252Z,22.00
2023-01-17T15:26:58.434Z,22.00
2023-01-17T15:29:45.790Z,21.90
2023-01-17T15:32:25.561Z,21.90
2023-01-17T15:35:04.947Z,21.90
2023-01-17T15:37:45.119Z,21.90
2023-01-17T15:40:22.487Z,21.90
2023-01-17T15:43:00.462Z,21.90
2023-01-17T15:45:33.341Z,21.90
2023-01-17T15:48:38.018Z,21.80
2023-01-17T15:51:13.196Z,21.80
2023-01-17T15:53:49.429Z,21.90
2023-01-17T15:56:41.283Z,21.90
2023-01-17T15:59:49.554Z,21.90
2023-01-17T16:02:49.328Z,21.80
2023-01-17T16:05:33.621Z,21.90
2023-01-17T16:08:07.283Z,21.80
2023-01-17T16:10:50.361Z,21.90
2023-01-17T16:13:22.886Z,21.80
2023-01-17T16:15:54.645Z,21.90
2023-01-17T16:18:29.137Z,21.80
2023-01-17T16:21:00.446Z,21.80
2023-01-17T16:23:41.059Z,21.80
2023-01-17T16:26:18.223Z,21.80
2023-01-17T16:28:52.395Z,21.90
2023-01-17T16:31:25.212Z,21.90
2023-01-17T16:33:59.111Z,21.90
2023-01-17T16:36:33.299Z,21.90
2023-01-17T16:39:09.419Z,21.90
2023-01-17T16:41:45.072Z,21.80
2023-01-17T16:44:20.746Z,21.80
2023-01-17T16:46:53.050Z,21.80
2023-01-17T16:49:28.063Z,21.80
2023-01-17T16:51:58.760Z,21.80
2023-01-17T16:54:39.906Z,21.80
2023-01-17T16:57:13.629Z,21.80
2023-01-17T16:59:50.675Z,21.80
2023-01-17T17:02:25.306Z,21.80
2023-01-17T17:05:01.308Z,21.80
2023-01-17T17:07:36.715Z,21.70
2023-01-17T17:10:12.611Z,21.70
2023-01-17T17:15:31.862Z,21.80
2023-01-17T17:18:07.460Z,21.80
2023-01-17T17:20:38.851Z,21.80
2023-01-17T17:23:11.081Z,21.80
2023-01-17T17:25:44.876Z,21.90
2023-01-17T17:28:20.873Z,21.80
2023-01-17T17:30:56.181Z,21.80
2023-01-17T17:33:29.731Z,21.80
2023-01-17T17:36:06.731Z,21.80
2023-01-17T17:38:37.352Z,21.70
2023-01-17T17:41:11.129Z,21.80
2023-01-17T17:43:45.330Z,21.80
2023-01-17T17:46:21.022Z,21.80
2023-01-17T17:48:56.842Z,21.80
2023-01-17T17:51:29.444Z,21.80
2023-01-17T17:54:09.716Z,21.80
2023-01-17T17:56:45.282Z,21.80
2023-01-17T17:59:17.960Z,21.70
2023-01-17T18:01:52.979Z,21.80
2023-01-17T18:04:28.366Z,21.70
2023-01-17T18:06:58.434Z,21.80
2023-01-17T18:09:33.837Z,21.70
2023-01-17T18:12:07.172Z,21.70
2023-01-17T18:14:43.067Z,21.70
2023-01-17T18:17:18.940Z,21.70
2023-01-17T18:19:49.423Z,21.70
2023-01-17T18:22:21.748Z,21.80
2023-01-17T18:24:57.080Z,21.70
2023-01-17T18:27:29.088Z,21.70
2023-01-17T18:29:58.772Z,21.70
2023-01-17T18:32:29.129Z,21.70
2023-01-17T18:34:58.582Z,21.70
2023-01-17T18:37:29.257Z,21.70
2023-01-17T18:39:58.788Z,21.70
2023-01-17T18:42:29.175Z,21.70
2023-01-17T18:44:58.498Z,21.80
2023-01-17T18:47:29.819Z,21.70
2023-01-17T18:49:58.928Z,21.70
2023-01-17T18:52:29.032Z,21.70
2023-01-17T18:54:59.034Z,21.70
2023-01-17T18:57:29.387Z,21.70
2023-01-17T18:59:58.256Z,21.70
2023-01-17T19:02:32.739Z,21.80
2023-01-17T19:05:06.122Z,21.80
2023-01-17T19:07:39.202Z,21.70
2023-01-17T19:10:12.862Z,21.70
2023-01-17T19:12:54.951Z,21.70
2023-01-17T19:15:25.731Z,21.70
2023-01-17T19:17:57.470Z,21.70
2023-01-17T19:20:32.006Z,21.70
2023-01-17T19:23:02.066Z,21.70
2023-01-17T19:25:37.873Z,21.70
2023-01-17T19:28:11.028Z,21.70
2023-01-17T19:30:41.307Z,21.70
2023-01-17T19:33:16.765Z,21.70
2023-01-17T19:35:56.989Z,21.70
2023-01-17T19:38:32.685Z,21.70
2023-01-17T19:41:18.612Z,21.70
2023-01-17T19:43:49.074Z,21.70
2023-01-17T19:46:20.671Z,21.60
2023-01-17T19:48:56.203Z,21.70
2023-01-17T19:51:37.326Z,21.70
2023-01-17T19:54:16.553Z,21.70
2023-01-17T19:56:48.895Z,21.70
2023-01-17T19:59:20.605Z,21.60
2023-01-17T20:01:53.694Z,21.60
2023-01-17T20:04:27.852Z,21.70
2023-01-17T20:06:57.703Z,21.70
2023-01-17T20:09:33.592Z,21.70
2023-01-17T20:12:05.966Z,21.60
2023-01-17T20:14:40.927Z,21.60
2023-01-17T20:17:13.394Z,21.70
2023-01-17T20:19:48.865Z,21.70
2023-01-17T20:22:22.501Z,21.70
2023-01-17T20:24:51.974Z,21.70
2023-01-17T20:27:25.506Z,21.70
2023-01-17T20:29:57.007Z,21.60
2023-01-17T20:32:26.640Z,21.60
2023-01-17T20:34:57.551Z,21.60
2023-01-17T20:37:33.677Z,21.70
2023-01-17T20:40:02.849Z,21.70
2023-01-17T20:42:33.218Z,21.70
2023-01-17T20:45:08.339Z,21.60
2023-01-17T20:47:40.926Z,21.60
2023-01-17T20:50:17.331Z,21.60
2023-01-17T20:52:49.372Z,21.60
2023-01-17T20:55:25.028Z,21.70
2023-01-17T20:57:54.762Z,21.60
2023-01-17T21:00:25.287Z,21.60
2023-01-17T21:02:57.536Z,21.70
2023-01-17T21:05:27.154Z,21.70
2023-01-17T21:07:57.770Z,21.60
2023-01-17T21:10:29.140Z,21.60
2023-01-17T21:12:58.378Z,21.70
2023-01-17T21:15:32.755Z,21.60
2023-01-17T21:18:12.234Z,21.60
2023-01-17T21:20:47.979Z,21.60
2023-01-17T21:23:24.106Z,21.70
2023-01-17T21:25:57.632Z,21.70
2023-01-17T21:28:31.400Z,21.70
2023-01-17T21:31:02.237Z,21.70
2023-01-17T21:33:41.353Z,21.70
2023-01-17T21:36:16.456Z,21.60
2023-01-17T21:38:53.843Z,21.60
2023-01-17T21:41:24.861Z,21.60
2023-01-17T21:44:05.092Z,21.60
2023-01-17T21:46:38.198Z,21.60
2023-01-17T21:49:11.202Z,21.60
2023-01-17T21:51:58.058Z,21.70
2023-01-17T21:54:51.144Z,21.60
2023-01-17T21:57:42.362Z,21.60
2023-01-17T22:00:19.855Z,21.60
2023-01-17T22:02:54.364Z,21.60
2023-01-17T22:05:29.241Z,21.60
2023-01-17T22:08:15.330Z,21.60
2023-01-17T22:10:50.510Z,21.60
2023-01-17T22:13:21.315Z,21.60
2023-01-17T22:16:05.611Z,21.60
2023-01-17T22:18:37.927Z,21.70
2023-01-17T22:21:23.873Z,21.60
2023-01-17T22:24:05.159Z,21.70
2023-01-17T22:26:41.903Z,21.60
2023-01-17T22:29:17.176Z,21.60
2023-01-17T22:31:53.714Z,21.60
2023-01-17T22:34:28.740Z,21.60
2023-01-17T22:37:02.580Z,21.60
2023-01-17T22:39:34.996Z,21.60
2023-01-17T22:42:04.898Z,21.60
2023-01-17T22:44:38.609Z,21.60
2023-01-17T22:47:09.091Z,21.60
2023-01-17T22:49:38.462Z,21.60
2023-01-17T22:52:10.562Z,21.70
2023-01-17T22:54:42.654Z,21.60
2023-01-17T22:57:15.505Z,21.70
2023-01-17T22:59:45.748Z,21.70
2023-01-17T23:02:24.014Z,21.60
2023-01-17T23:04:57.648Z,21.60
2023-01-17T23:07:32.991Z,21.60
2023-01-17T23:10:06.345Z,21.60
2023-01-17T23:12:38.589Z,21.60
2023-01-17T23:15:28.482Z,21.60
2023-01-17T23:18:16.406Z,21.60
2023-01-17T23:20:50.559Z,21.70
2023-01-17T23:23:22.930Z,21.60
2023-01-17T23:25:51.986Z,21.60
2023-01-17T23:28:31.490Z,21.60
2023-01-17T23:31:06.044Z,21.60
2023-01-17T23:33:39.105Z,21.70
2023-01-17T23:36:13.537Z,21.60
2023-01-17T23:38:45.902Z,21.70
2023-01-17T23:41:33.898Z,21.80
2023-01-17T23:44:05.983Z,21.90
2023-01-17T23:46:36.067Z,22.00
2023-01-17T23:49:05.459Z,21.90
2023-01-17T23:51:34.586Z,22.00
2023-01-17T23:54:05.924Z,22.00
2023-01-17T23:56:40.871Z,22.00
2023-01-17T23:59:16.873Z,22.00
